Kezdőlap
METAR-TAF:

METAR-TAF

Repülőterek :

Mafikeng, Dél-afrikai Köztársaság

földrajzi szélesség: 25-47S, földrajzi hosszúság: 025-32E, magasság: 1281 m

Jelenlegi meteorológiai megfigyelések

A jelentés 11 perccel ezelõtt készült, 22:00 UTC
Keleti szél 4 kt
Hőmérséklet 8°C
Páratartalom 29%
Légköri nyomás 1022 hPa

METAR: FAMM 192200Z AUTO 08004KT //// // ////// 08/M09 Q1022

Idő: 00:11 (22:11 UTC)

Előrejelzés

A jelentés 13 órával és 1 perccel ezelõtt készült, 09:10 UTC
Az előrejelzés 19-én 10 óra UTC és 19-én 18 óra UTC között érvényes
Nyugat-északnyugati szél 13 kt
Látótávolság 10 km, vagy több
felhőtlen 1500 m magasságban, és nincs gomolyfelhõ
19-én 16 óra UTC és 19-én 18 óra UTC között fokozatosan kialakuló
Különbözõ irányokból fújó szél 3 kt

TAF: FAMM 190910Z 1910/1918 29013KT CAVOK TX28/1912Z TN14/1918Z BECMG 1916/1918 VRB03KT

Meteorológiai megfigyelések és előrejelzések több, mint 4000 repülőtéren (METAR és TAF jelentéseket).

A térképen piros és sárga pontok jelzik az elérhető meteorológiai állomásokat.

Mozgassa az egeret a pont fölött, hogy megjelenjen az állomás neve.

Azután kattintson az időjárási megfigyelések és előrejelzések megtekintéséhez.

A térkép megváltoztatása: kattintson a fekete keresztel jelölt zöld gombra ráközelítéshez, a vonallal jelölt zöld gombra távolításhoz, vagy a zöld nyilakra a szomszédos térképek eléréséhez.


METAR-TAF: